createdAt,value
2019-03-09T00:00:59.661Z,44.40
2019-03-09T00:03:51.623Z,44.50
2019-03-09T00:06:45.365Z,44.60
2019-03-09T00:09:38.522Z,44.40
2019-03-09T00:12:31.791Z,44.40
2019-03-09T00:15:24.124Z,44.50
2019-03-09T00:18:16.274Z,44.30
2019-03-09T00:21:08.064Z,44.40
2019-03-09T00:24:19.320Z,44.20
2019-03-09T00:27:30.135Z,44.40
2019-03-09T00:30:34.458Z,44.30
2019-03-09T00:33:26.726Z,44.30
2019-03-09T00:36:19.095Z,44.20
2019-03-09T00:39:11.434Z,44.70
2019-03-09T00:42:03.424Z,44.40
2019-03-09T00:44:55.679Z,44.30
2019-03-09T00:47:48.301Z,44.50
2019-03-09T00:50:40.540Z,44.40
2019-03-09T00:53:33.211Z,44.40
2019-03-09T00:56:25.369Z,44.40
2019-03-09T00:59:17.574Z,44.40
2019-03-09T01:02:09.556Z,44.50
2019-03-09T01:05:04.799Z,44.50
2019-03-09T01:07:57.008Z,44.30
2019-03-09T01:10:49.085Z,44.90
2019-03-09T01:13:41.196Z,44.60
2019-03-09T01:16:33.699Z,45.20
2019-03-09T01:19:25.487Z,44.50
2019-03-09T01:22:17.733Z,44.90
2019-03-09T01:25:09.871Z,44.70
2019-03-09T01:28:02.073Z,44.90
2019-03-09T01:30:53.953Z,44.90
2019-03-09T01:33:46.006Z,44.90
2019-03-09T01:36:38.090Z,44.90
2019-03-09T01:39:30.617Z,44.70
2019-03-09T01:42:23.041Z,45.00
2019-03-09T01:45:15.544Z,45.00
2019-03-09T01:48:07.654Z,44.90
2019-03-09T01:51:00.039Z,44.80
2019-03-09T01:53:52.671Z,44.90
2019-03-09T01:56:45.017Z,44.80
2019-03-09T01:59:40.669Z,45.00
2019-03-09T02:02:32.832Z,45.20
2019-03-09T02:05:24.697Z,44.90
2019-03-09T02:08:18.643Z,45.00
2019-03-09T02:11:10.467Z,44.90
2019-03-09T02:14:02.635Z,44.70
2019-03-09T02:16:55.378Z,45.00
2019-03-09T02:19:48.277Z,44.70
2019-03-09T02:22:40.696Z,45.10
2019-03-09T02:25:32.886Z,45.00
2019-03-09T02:28:25.170Z,45.00
2019-03-09T02:31:17.594Z,45.00
2019-03-09T02:34:09.684Z,45.10
2019-03-09T02:37:01.840Z,45.10
2019-03-09T02:40:01.589Z,44.90
2019-03-09T02:42:55.010Z,45.10
2019-03-09T02:45:47.349Z,44.90
2019-03-09T02:48:43.246Z,44.90
2019-03-09T02:51:34.971Z,44.90
2019-03-09T02:54:28.493Z,45.00
2019-03-09T02:57:19.967Z,45.00
2019-03-09T03:00:13.730Z,45.30
2019-03-09T03:03:08.003Z,45.40
2019-03-09T03:05:59.930Z,45.50
2019-03-09T03:08:52.119Z,45.40
2019-03-09T03:11:44.068Z,45.50
2019-03-09T03:14:36.372Z,45.60
2019-03-09T03:17:29.904Z,45.40
2019-03-09T03:20:22.256Z,45.60
2019-03-09T03:23:14.423Z,45.50
2019-03-09T03:26:06.673Z,45.30
2019-03-09T03:28:59.116Z,45.70
2019-03-09T03:31:51.423Z,45.50
2019-03-09T03:34:53.458Z,45.60
2019-03-09T03:37:45.546Z,45.60
2019-03-09T03:41:00.970Z,45.30
2019-03-09T03:44:00.764Z,45.30
2019-03-09T03:46:58.072Z,45.20
2019-03-09T03:49:50.254Z,45.50
2019-03-09T03:52:42.184Z,45.60
2019-03-09T03:55:37.182Z,45.50
2019-03-09T03:58:29.081Z,45.40
2019-03-09T04:01:21.491Z,45.40
2019-03-09T04:04:13.586Z,45.60
2019-03-09T04:07:05.861Z,45.60
2019-03-09T04:10:00.476Z,45.40
2019-03-09T04:12:52.317Z,45.30
2019-03-09T04:15:45.313Z,45.40
2019-03-09T04:18:38.308Z,45.40
2019-03-09T04:21:30.149Z,45.00
2019-03-09T04:24:22.752Z,44.60
2019-03-09T04:27:14.669Z,44.80
2019-03-09T04:30:07.152Z,45.00
2019-03-09T04:32:59.870Z,44.70
2019-03-09T04:35:53.165Z,45.00
2019-03-09T04:38:45.573Z,44.80
2019-03-09T04:41:38.471Z,44.90
2019-03-09T04:44:42.217Z,44.90
2019-03-09T04:47:34.815Z,44.70
2019-03-09T04:53:31.648Z,44.90
2019-03-09T04:56:25.398Z,44.50
2019-03-09T04:59:18.001Z,44.80
2019-03-09T05:02:10.225Z,44.80
2019-03-09T05:05:03.060Z,44.90
2019-03-09T05:08:06.362Z,44.70
2019-03-09T05:11:03.880Z,44.80
2019-03-09T05:13:58.989Z,44.80
2019-03-09T05:16:51.635Z,44.70
2019-03-09T05:19:43.739Z,44.70
2019-03-09T05:22:37.701Z,44.70
2019-03-09T05:25:30.009Z,44.80
2019-03-09T05:28:23.455Z,44.80
2019-03-09T05:31:15.763Z,45.00
2019-03-09T05:34:07.707Z,44.70
2019-03-09T05:36:59.797Z,44.90
2019-03-09T05:39:52.244Z,44.80
2019-03-09T05:42:44.410Z,44.70
2019-03-09T05:45:36.571Z,44.80
2019-03-09T05:48:28.930Z,44.80
2019-03-09T05:51:21.102Z,44.60
2019-03-09T05:54:14.243Z,45.00
2019-03-09T05:57:06.727Z,44.80
2019-03-09T05:59:58.815Z,44.80
2019-03-09T06:02:51.457Z,44.90
2019-03-09T06:05:44.642Z,45.00
2019-03-09T06:08:37.343Z,45.20
2019-03-09T06:11:29.799Z,44.90
2019-03-09T06:14:22.174Z,45.20
2019-03-09T06:17:14.207Z,45.10
2019-03-09T06:20:07.248Z,45.20
2019-03-09T06:23:00.861Z,45.20
2019-03-09T06:25:53.136Z,45.10
2019-03-09T06:28:46.341Z,45.20
2019-03-09T06:31:38.685Z,44.60
2019-03-09T06:34:30.837Z,45.10
2019-03-09T06:37:24.690Z,44.90
2019-03-09T06:40:16.872Z,45.30
2019-03-09T06:43:09.064Z,45.00
2019-03-09T06:46:01.103Z,44.80
2019-03-09T06:48:53.187Z,44.80
2019-03-09T06:51:45.118Z,45.00
2019-03-09T06:54:37.008Z,45.30
2019-03-09T06:57:29.134Z,45.00
2019-03-09T07:00:39.235Z,45.00
2019-03-09T07:03:31.350Z,45.20
2019-03-09T07:06:24.864Z,44.90
2019-03-09T07:09:17.207Z,44.80
2019-03-09T07:12:09.405Z,45.00
2019-03-09T07:15:21.720Z,44.90
2019-03-09T07:18:24.217Z,44.80
2019-03-09T07:21:16.556Z,45.10
2019-03-09T07:24:08.771Z,45.10
2019-03-09T07:27:01.279Z,44.30
2019-03-09T07:29:55.227Z,45.10
2019-03-09T07:32:47.398Z,44.50
2019-03-09T07:35:40.745Z,45.00
2019-03-09T07:38:33.031Z,44.80
2019-03-09T07:41:25.369Z,44.40
2019-03-09T07:44:17.603Z,44.50
2019-03-09T07:47:09.814Z,44.60
2019-03-09T07:50:01.779Z,44.90
2019-03-09T07:52:55.245Z,44.90
2019-03-09T07:55:47.410Z,44.70
2019-03-09T07:58:39.520Z,44.90
2019-03-09T08:01:31.819Z,44.60
2019-03-09T08:04:23.994Z,44.50
2019-03-09T08:07:16.156Z,45.10
2019-03-09T08:10:08.431Z,44.30
2019-03-09T08:13:01.052Z,43.80
2019-03-09T08:15:53.232Z,44.80
2019-03-09T08:18:45.606Z,44.60
2019-03-09T08:21:37.661Z,44.10
2019-03-09T08:24:29.951Z,44.00
2019-03-09T08:27:22.184Z,44.80
2019-03-09T08:30:18.040Z,44.00
2019-03-09T08:33:11.217Z,44.40
2019-03-09T08:36:03.096Z,44.60
2019-03-09T08:38:55.202Z,44.20
2019-03-09T08:41:47.589Z,44.10
2019-03-09T08:44:40.059Z,44.60
2019-03-09T08:47:32.132Z,44.20
2019-03-09T08:50:24.076Z,44.30
2019-03-09T08:53:16.871Z,44.40
2019-03-09T08:56:09.142Z,44.60
2019-03-09T08:59:01.362Z,44.50
2019-03-09T09:01:53.645Z,44.50
2019-03-09T09:04:46.102Z,44.50
2019-03-09T09:07:38.562Z,44.60
2019-03-09T09:10:31.358Z,44.50
2019-03-09T09:13:23.607Z,44.20
2019-03-09T09:16:15.674Z,44.20
2019-03-09T09:19:07.774Z,44.00
2019-03-09T09:21:59.904Z,44.50
2019-03-09T09:24:51.755Z,44.00
2019-03-09T09:27:44.087Z,44.30
2019-03-09T09:30:36.834Z,44.30
2019-03-09T09:33:29.290Z,44.30
2019-03-09T09:36:24.221Z,44.40
2019-03-09T09:39:16.633Z,44.60
2019-03-09T09:42:08.794Z,44.50
2019-03-09T09:45:02.100Z,44.40
2019-03-09T09:47:55.117Z,44.20
2019-03-09T09:50:47.481Z,44.70
2019-03-09T09:53:44.305Z,44.30
2019-03-09T09:56:37.075Z,44.20
2019-03-09T09:59:30.086Z,44.60
2019-03-09T10:02:22.158Z,44.30
2019-03-09T10:05:17.409Z,43.70
2019-03-09T10:08:09.594Z,44.60
2019-03-09T10:11:01.874Z,44.40
2019-03-09T10:13:54.060Z,44.60
2019-03-09T10:16:47.141Z,44.40
2019-03-09T10:19:39.411Z,44.30
2019-03-09T10:22:31.444Z,44.30
2019-03-09T10:25:23.454Z,44.30
2019-03-09T10:28:15.757Z,44.60
2019-03-09T10:31:07.939Z,44.50
2019-03-09T10:34:00.220Z,44.60
2019-03-09T10:36:52.374Z,44.60
2019-03-09T10:39:44.590Z,44.20
2019-03-09T10:42:38.911Z,44.40
2019-03-09T10:45:30.741Z,44.50
2019-03-09T10:48:22.772Z,44.40
2019-03-09T10:51:15.065Z,44.50
2019-03-09T10:54:07.067Z,44.60
2019-03-09T10:56:59.268Z,44.30
2019-03-09T10:59:51.481Z,44.20
2019-03-09T11:02:43.540Z,44.30
2019-03-09T11:05:41.915Z,44.60
2019-03-09T11:08:33.971Z,44.40
2019-03-09T11:11:26.264Z,44.40
2019-03-09T11:14:18.493Z,44.50
2019-03-09T11:17:11.052Z,44.50
2019-03-09T11:20:03.381Z,44.20
2019-03-09T11:22:55.766Z,44.40
2019-03-09T11:25:48.279Z,44.40
2019-03-09T11:28:40.606Z,44.40
2019-03-09T11:31:33.085Z,44.40
2019-03-09T11:34:25.257Z,44.40
2019-03-09T11:37:17.383Z,44.20
2019-03-09T11:40:09.519Z,44.30
2019-03-09T11:43:01.719Z,44.20
2019-03-09T11:45:56.199Z,44.50
2019-03-09T11:48:48.025Z,44.50
2019-03-09T11:51:40.166Z,44.40
2019-03-09T11:54:32.336Z,44.30
2019-03-09T11:57:24.256Z,44.40
2019-03-09T12:00:18.224Z,44.40
2019-03-09T12:03:10.135Z,44.30
2019-03-09T12:06:02.167Z,44.60
2019-03-09T12:08:54.307Z,44.50
2019-03-09T12:11:54.221Z,44.50
2019-03-09T12:14:47.178Z,44.40
2019-03-09T12:17:39.299Z,44.60
2019-03-09T12:20:32.005Z,44.40
2019-03-09T12:23:24.742Z,44.50
2019-03-09T12:26:16.982Z,44.40
2019-03-09T12:29:09.335Z,44.40
2019-03-09T12:32:01.657Z,44.40
2019-03-09T12:34:53.824Z,44.40
2019-03-09T12:37:47.107Z,44.50
2019-03-09T12:40:39.236Z,44.30
2019-03-09T12:43:31.211Z,44.40
2019-03-09T12:46:23.447Z,44.50
2019-03-09T12:49:16.213Z,44.40
2019-03-09T12:52:08.327Z,44.50
2019-03-09T12:55:00.683Z,44.50
2019-03-09T12:57:52.856Z,44.50
2019-03-09T13:00:44.994Z,44.50
2019-03-09T13:03:36.956Z,44.60
2019-03-09T13:06:29.035Z,44.60
2019-03-09T13:09:20.964Z,44.60
2019-03-09T13:12:13.113Z,44.50
2019-03-09T13:15:05.301Z,44.60
2019-03-09T13:17:57.798Z,44.60
2019-03-09T13:20:50.084Z,44.80
2019-03-09T13:23:42.213Z,44.70
2019-03-09T13:26:34.371Z,44.80
2019-03-09T13:29:26.644Z,44.70
2019-03-09T13:32:18.926Z,44.70
2019-03-09T13:35:11.211Z,44.90
2019-03-09T13:38:03.680Z,44.80
2019-03-09T13:40:55.996Z,44.90
2019-03-09T13:43:48.402Z,44.90
2019-03-09T13:46:47.085Z,44.90
2019-03-09T13:49:40.026Z,44.90
2019-03-09T13:52:32.736Z,45.00
2019-03-09T13:55:24.930Z,45.00
2019-03-09T13:58:17.123Z,45.00
2019-03-09T14:01:09.113Z,45.00
2019-03-09T14:04:01.228Z,45.00
2019-03-09T14:06:53.407Z,45.00
2019-03-09T14:09:45.590Z,45.00
2019-03-09T14:12:37.874Z,45.00
2019-03-09T14:15:30.146Z,45.00
2019-03-09T14:18:21.919Z,45.10
2019-03-09T14:21:13.842Z,45.00
2019-03-09T14:24:05.993Z,45.00
2019-03-09T14:26:58.073Z,45.00
2019-03-09T14:29:50.430Z,45.10
2019-03-09T14:32:45.696Z,45.10
2019-03-09T14:35:43.372Z,45.20
2019-03-09T14:38:35.382Z,45.30
2019-03-09T14:41:27.342Z,45.20
2019-03-09T14:44:19.482Z,45.20
2019-03-09T14:47:11.445Z,45.20
2019-03-09T14:50:03.611Z,45.30
2019-03-09T14:52:55.711Z,45.30
2019-03-09T14:55:47.972Z,45.20
2019-03-09T14:58:40.577Z,45.30
2019-03-09T15:01:33.090Z,45.40
2019-03-09T15:04:25.848Z,45.30
2019-03-09T15:07:17.726Z,45.40
2019-03-09T15:10:10.027Z,45.40
2019-03-09T15:13:02.526Z,45.40
2019-03-09T15:15:55.093Z,45.30
2019-03-09T15:18:47.272Z,45.40
2019-03-09T15:21:40.788Z,45.40
2019-03-09T15:24:33.229Z,45.50
2019-03-09T15:27:26.019Z,45.50
2019-03-09T15:30:18.531Z,45.60
2019-03-09T15:33:10.857Z,45.60
2019-03-09T15:36:03.210Z,45.50
2019-03-09T15:38:55.584Z,45.60
2019-03-09T15:41:47.821Z,45.60
2019-03-09T15:44:39.846Z,45.60
2019-03-09T15:47:32.104Z,45.60
2019-03-09T15:50:24.302Z,45.60
2019-03-09T15:53:16.408Z,45.60
2019-03-09T15:56:08.886Z,45.70
2019-03-09T15:59:01.321Z,45.70
2019-03-09T16:01:54.285Z,45.60
2019-03-09T16:04:46.808Z,45.60
2019-03-09T16:07:39.557Z,45.70
2019-03-09T16:10:31.923Z,45.70
2019-03-09T16:13:24.496Z,45.70
2019-03-09T16:16:16.856Z,45.80
2019-03-09T16:19:09.772Z,45.70
2019-03-09T16:22:02.101Z,45.70
2019-03-09T16:24:54.649Z,45.70
2019-03-09T16:27:46.533Z,45.80
2019-03-09T16:30:39.013Z,45.80
2019-03-09T16:33:31.201Z,45.90
2019-03-09T16:36:23.401Z,45.80
2019-03-09T16:39:17.021Z,45.90
2019-03-09T16:42:09.536Z,45.80
2019-03-09T16:45:01.865Z,45.80
2019-03-09T16:47:54.272Z,45.90
2019-03-09T16:50:46.909Z,45.90
2019-03-09T16:53:39.383Z,45.90
2019-03-09T16:56:31.705Z,45.90
2019-03-09T16:59:24.861Z,45.90
2019-03-09T17:02:16.811Z,46.00
2019-03-09T17:05:09.201Z,46.00
2019-03-09T17:08:01.423Z,46.00
2019-03-09T17:10:53.503Z,46.00
2019-03-09T17:13:45.694Z,46.00
2019-03-09T17:16:37.744Z,46.00
2019-03-09T17:19:30.020Z,46.00
2019-03-09T17:22:29.694Z,46.00
2019-03-09T17:25:17.071Z,46.00
2019-03-09T17:28:10.086Z,46.00
2019-03-09T17:31:02.597Z,46.00
2019-03-09T17:33:55.590Z,46.00
2019-03-09T17:36:48.421Z,46.10
2019-03-09T17:39:40.578Z,46.10
2019-03-09T17:42:32.790Z,46.10
2019-03-09T17:45:25.313Z,46.10
2019-03-09T17:48:17.576Z,46.10
2019-03-09T17:51:10.274Z,46.10
2019-03-09T17:54:02.556Z,46.10
2019-03-09T17:56:55.011Z,46.10
2019-03-09T17:59:47.510Z,46.10
2019-03-09T18:02:39.785Z,46.10
2019-03-09T18:05:31.810Z,46.10
2019-03-09T18:08:24.038Z,46.10
2019-03-09T18:11:16.298Z,46.20
2019-03-09T18:14:08.745Z,46.20
2019-03-09T18:17:01.083Z,46.20
2019-03-09T18:19:53.312Z,46.20
2019-03-09T18:22:45.391Z,46.20
2019-03-09T18:25:37.199Z,46.20
2019-03-09T18:28:30.429Z,46.20
2019-03-09T18:31:22.432Z,46.30
2019-03-09T18:34:15.435Z,46.20
2019-03-09T18:37:07.958Z,46.30
2019-03-09T18:40:00.333Z,46.30
2019-03-09T18:42:53.222Z,46.40
2019-03-09T18:45:45.545Z,46.40
2019-03-09T18:48:38.256Z,46.50
2019-03-09T18:51:30.464Z,46.40
2019-03-09T18:54:22.925Z,46.40
2019-03-09T18:57:15.187Z,46.40
2019-03-09T19:00:08.374Z,46.50
2019-03-09T19:03:00.686Z,46.50
2019-03-09T19:05:53.297Z,46.60
2019-03-09T19:08:45.642Z,46.50
2019-03-09T19:11:38.149Z,46.50
2019-03-09T19:14:30.902Z,46.50
2019-03-09T19:17:23.202Z,46.60
2019-03-09T19:20:15.827Z,46.60
2019-03-09T19:23:08.660Z,46.50
2019-03-09T19:26:01.877Z,46.60
2019-03-09T19:28:55.406Z,46.60
2019-03-09T19:31:47.334Z,46.60
2019-03-09T19:34:39.440Z,46.60
2019-03-09T19:37:31.734Z,46.60
2019-03-09T19:40:24.342Z,46.60
2019-03-09T19:43:17.283Z,46.70
2019-03-09T19:46:09.738Z,46.60
2019-03-09T19:49:01.749Z,46.60
2019-03-09T19:51:54.421Z,46.50
2019-03-09T19:54:46.550Z,46.50
2019-03-09T19:57:38.663Z,46.60
2019-03-09T20:00:30.739Z,46.50
2019-03-09T20:03:22.934Z,46.60
2019-03-09T20:06:15.043Z,46.60
2019-03-09T20:09:08.345Z,46.60
2019-03-09T20:12:00.279Z,46.60
2019-03-09T20:14:56.282Z,46.60
2019-03-09T20:17:48.457Z,46.50
2019-03-09T20:20:40.705Z,46.60
2019-03-09T20:23:32.891Z,46.60
2019-03-09T20:26:25.080Z,46.60
2019-03-09T20:29:17.379Z,46.60
2019-03-09T20:32:09.628Z,46.60
2019-03-09T20:35:01.756Z,46.60
2019-03-09T20:37:53.618Z,46.70
2019-03-09T20:40:47.158Z,46.60
2019-03-09T20:43:39.067Z,46.70
2019-03-09T20:46:30.844Z,46.70
2019-03-09T20:49:22.768Z,46.60
2019-03-09T20:52:14.540Z,46.70
2019-03-09T20:55:06.737Z,46.60
2019-03-09T20:57:58.609Z,46.50
2019-03-09T21:00:50.773Z,46.60
2019-03-09T21:03:42.627Z,46.50
2019-03-09T21:06:34.475Z,46.40
2019-03-09T21:09:26.582Z,46.20
2019-03-09T21:12:18.709Z,45.90
2019-03-09T21:15:10.631Z,46.00
2019-03-09T21:18:02.490Z,46.00
2019-03-09T21:20:54.587Z,45.80
2019-03-09T21:23:46.707Z,45.60
2019-03-09T21:26:39.267Z,45.60
2019-03-09T21:29:31.471Z,45.50
2019-03-09T21:32:23.441Z,45.60
2019-03-09T21:35:15.655Z,45.70
2019-03-09T21:38:07.722Z,45.80
2019-03-09T21:41:01.235Z,45.80
2019-03-09T21:43:53.392Z,45.80
2019-03-09T21:46:45.569Z,45.90
2019-03-09T21:49:37.662Z,46.10
2019-03-09T21:52:29.952Z,46.00
2019-03-09T21:55:22.096Z,46.00
2019-03-09T21:58:14.908Z,46.10
2019-03-09T22:01:07.298Z,46.10
2019-03-09T22:04:00.160Z,46.20
2019-03-09T22:06:52.353Z,46.20
2019-03-09T22:09:44.566Z,46.10
2019-03-09T22:12:36.857Z,46.00
2019-03-09T22:15:29.298Z,46.00
2019-03-09T22:18:21.566Z,46.00
2019-03-09T22:21:13.533Z,46.10
2019-03-09T22:24:05.737Z,46.20
2019-03-09T22:26:57.945Z,46.20
2019-03-09T22:29:50.156Z,46.30
2019-03-09T22:32:42.919Z,46.30
2019-03-09T22:35:35.109Z,46.30
2019-03-09T22:38:27.411Z,46.20
2019-03-09T22:41:19.245Z,46.20
2019-03-09T22:44:11.169Z,46.20
2019-03-09T22:47:11.175Z,46.30
2019-03-09T22:49:56.493Z,46.40
2019-03-09T22:52:48.685Z,46.40
2019-03-09T22:55:40.941Z,46.60
2019-03-09T22:58:33.058Z,46.50
2019-03-09T23:01:25.008Z,46.70
2019-03-09T23:04:17.826Z,46.60
2019-03-09T23:07:09.763Z,46.80
2019-03-09T23:10:01.451Z,46.80
2019-03-09T23:12:53.860Z,47.10
2019-03-09T23:15:45.997Z,46.90
2019-03-09T23:18:38.105Z,46.90
2019-03-09T23:21:30.096Z,46.80
2019-03-09T23:24:22.201Z,46.90
2019-03-09T23:27:14.480Z,47.00
2019-03-09T23:30:07.898Z,47.20
2019-03-09T23:32:59.797Z,47.40
2019-03-09T23:35:51.731Z,47.30
2019-03-09T23:38:43.791Z,47.20
2019-03-09T23:41:35.843Z,47.30
2019-03-09T23:44:28.023Z,47.20
2019-03-09T23:47:20.150Z,47.20
2019-03-09T23:50:12.755Z,47.40
2019-03-09T23:53:04.583Z,47.60
2019-03-09T23:55:56.722Z,47.30
2019-03-09T23:58:48.958Z,47.40
